Hovedside
METAR-TAF:

METAR-TAF

Lufthavner :

Mo i Rana, Norge

Mo i Rana lufthavn. Røssvoll

breddegrad: 66-22N, lengdegrad: 014-18E, høyde over havet: 7 m

Gjeldene værobservasjon

Denne rapporten ble laget for 31 minutter siden, klokken 13:20 UTC
Vind 8 kt fra Øst
Temperatur -8°C
Luftfuktighet 44%
Trykk 1045 hPa
Sikt 10 km eller mer
ingen skyer under 1500 m og ingen bygeskyer

METAR: ENRA 251320Z 10008KT CAVOK M08/M18 Q1045

Tid: 14:51 (13:51 UTC)

Varsel

Denne rapporten ble laget for 2 timer og 51 minutter siden, klokken 11:00 UTC
Varsel gyldig fra 25. klokken 12 UTC til 25. klokken 21 UTC
Vind 8 kt fra Øst
Sikt 10 km eller mer
ingen skyer under 1500 m og ingen bygeskyer

TAF: ENRA 251100Z 2512/2521 09008KT CAVOK

Værobservasjoner og værvarsel for over 4000 flyplasser (METAR- og TAF-rapporter).

Tilgjengelige stasjoner er representert av de røde og gule prikkene på kartet.

Hold musepekeren over prikken for å se navnet på stasjonen.

Klikk så for å se værobservasjoner og -varsler.

For å forandre kartet kan du klikke på den grønne knappen med svart kryss for å zoome inn, på den grønne knappen med strek for å zoome ut, eller på de grønne pilene for å se tilstøtende kart.


METAR-TAF: